createdAt,value
2018-05-23T00:07:19.375Z,0
2018-05-23T00:17:19.446Z,0
2018-05-23T00:27:19.407Z,0
2018-05-23T00:37:19.413Z,0
2018-05-23T00:47:19.437Z,0
2018-05-23T00:57:19.426Z,0
2018-05-23T01:07:19.474Z,0
2018-05-23T01:17:19.449Z,0
2018-05-23T01:27:19.421Z,0
2018-05-23T01:37:19.483Z,0
2018-05-23T01:47:19.415Z,0
2018-05-23T01:57:19.486Z,0
2018-05-23T02:07:19.461Z,0
2018-05-23T02:17:19.415Z,0
2018-05-23T02:27:20.517Z,0
2018-05-23T02:37:19.400Z,0
2018-05-23T02:47:19.589Z,0
2018-05-23T02:57:19.420Z,4
2018-05-23T03:07:19.428Z,8
2018-05-23T03:17:19.441Z,24
2018-05-23T03:27:19.426Z,48
2018-05-23T03:37:19.378Z,104
2018-05-23T03:47:19.458Z,228
2018-05-23T03:57:19.422Z,512
2018-05-23T04:07:19.531Z,740
2018-05-23T04:17:19.430Z,1128
2018-05-23T04:27:19.426Z,1868
2018-05-23T04:37:19.477Z,2456
2018-05-23T04:47:19.458Z,3120
2018-05-23T04:57:19.509Z,3688
2018-05-23T05:07:19.494Z,3944
2018-05-23T05:17:19.417Z,4568
2018-05-23T05:27:19.509Z,5108
2018-05-23T05:37:19.482Z,7244
2018-05-23T05:47:19.415Z,9068
2018-05-23T05:57:19.455Z,9388
2018-05-23T06:07:19.659Z,9028
2018-05-23T06:17:19.854Z,10936
2018-05-23T06:27:19.519Z,13108
2018-05-23T06:37:19.439Z,15176
2018-05-23T06:47:19.530Z,16536
2018-05-23T06:57:19.461Z,16576
2018-05-23T07:07:19.408Z,14164
2018-05-23T07:17:19.360Z,16652
2018-05-23T07:27:19.412Z,17272
2018-05-23T07:37:19.424Z,20032
2018-05-23T07:47:21.467Z,20928
2018-05-23T07:57:19.414Z,27360
2018-05-23T08:07:19.414Z,39232
2018-05-23T08:17:19.424Z,39648
2018-05-23T08:27:21.529Z,30432
2018-05-23T08:37:20.435Z,34112
2018-05-23T08:47:21.482Z,33120
2018-05-23T08:57:19.430Z,21056
2018-05-23T09:07:19.437Z,19648
2018-05-23T09:17:19.409Z,19232
2018-05-23T09:27:19.417Z,21568
2018-05-23T09:37:19.404Z,23392
2018-05-23T09:47:19.463Z,22784
2018-05-23T09:57:19.457Z,19904
2018-05-23T10:07:19.500Z,18880
2018-05-23T10:17:19.475Z,19872
2018-05-23T10:27:19.456Z,20960
2018-05-23T10:37:19.495Z,20352
2018-05-23T10:47:19.441Z,19456
2018-05-23T10:57:19.563Z,18688
2018-05-23T11:07:19.482Z,20064
2018-05-23T11:17:19.496Z,20064
2018-05-23T11:27:19.450Z,20192
2018-05-23T11:37:19.452Z,20096
2018-05-23T11:47:19.487Z,17756
2018-05-23T11:57:19.649Z,17524
2018-05-23T12:07:21.224Z,19104
2018-05-23T12:17:20.578Z,17584
2018-05-23T12:27:19.556Z,15708
2018-05-23T12:37:19.513Z,15816
2018-05-23T12:47:19.836Z,15788
2018-05-23T12:57:19.633Z,16128
2018-05-23T13:07:19.474Z,16304
2018-05-23T13:17:19.556Z,17296
2018-05-23T13:27:19.522Z,17896
2018-05-23T13:37:19.519Z,17412
2018-05-23T13:47:19.550Z,16404
2018-05-23T13:57:19.537Z,14756
2018-05-23T14:07:19.501Z,13256
2018-05-23T14:17:19.557Z,12136
2018-05-23T14:27:19.599Z,9444
2018-05-23T14:37:19.501Z,7016
2018-05-23T14:47:20.189Z,5968
2018-05-23T14:57:19.558Z,5216
2018-05-23T15:07:19.519Z,4808
2018-05-23T15:17:19.809Z,4552
2018-05-23T15:27:19.763Z,4424
2018-05-23T15:37:20.613Z,4272
2018-05-23T15:47:19.522Z,4176
2018-05-23T15:57:19.604Z,4072
2018-05-23T16:07:19.558Z,4012
2018-05-23T16:17:19.598Z,3816
2018-05-23T16:27:19.599Z,3780
2018-05-23T16:37:19.554Z,3684
2018-05-23T16:47:19.526Z,3612
2018-05-23T16:57:19.597Z,3464
2018-05-23T17:07:19.574Z,3380
2018-05-23T17:17:19.648Z,3192
2018-05-23T17:27:19.598Z,3072
2018-05-23T17:37:19.691Z,2932
2018-05-23T17:47:19.635Z,2724
2018-05-23T17:57:33.704Z,2488
2018-05-23T18:07:19.887Z,2124
2018-05-23T18:17:20.233Z,1916
2018-05-23T18:27:20.877Z,1692
2018-05-23T18:37:19.619Z,1452
2018-05-23T18:47:19.598Z,1192
2018-05-23T18:57:19.703Z,928
2018-05-23T19:07:19.607Z,640
2018-05-23T19:17:19.671Z,392
2018-05-23T19:27:19.707Z,196
2018-05-23T19:37:19.639Z,88
2018-05-23T19:47:19.820Z,32
2018-05-23T19:57:19.676Z,8
2018-05-23T20:07:19.819Z,4
2018-05-23T20:17:19.627Z,0
2018-05-23T20:27:19.724Z,0
2018-05-23T20:37:19.614Z,0
2018-05-23T20:47:19.940Z,0
2018-05-23T20:57:19.655Z,0
2018-05-23T21:07:19.621Z,4
2018-05-23T21:17:23.688Z,4
2018-05-23T21:27:19.792Z,4
2018-05-23T21:37:20.325Z,0
2018-05-23T21:47:27.393Z,0
2018-05-23T21:57:19.748Z,0
2018-05-23T22:07:19.915Z,0
2018-05-23T22:17:19.794Z,0
2018-05-23T22:27:25.380Z,0
2018-05-23T22:37:19.833Z,0
2018-05-23T22:47:19.873Z,0
2018-05-23T22:57:19.803Z,0
2018-05-23T23:07:19.803Z,0
2018-05-23T23:17:19.891Z,0
2018-05-23T23:27:19.955Z,0
2018-05-23T23:37:19.988Z,0
2018-05-23T23:47:20.000Z,0
2018-05-23T23:57:20.111Z,0
